Time;durP1;ratioP1;P1;durP2;ratioP2;P2;SDS_P1;SDS_P2;PMS_P1;PMS_P2;Temp;Humidity;BMP_temperature;BMP_pressure;BME280_temperature;BME280_humidity;BME280_pressure;Samples;Min_cycle;Max_cycle;Signal;HPM_P1;HPM_P2
2023/10/02 00:01:06;;;;;;;24.55;11.65;;;;;;;;;;5031074;28;20084;-64
2023/10/02 00:03:31;;;;;;;;;;;;;;;;;;5031138;28;20041;-64
2023/10/02 00:05:57;;;;;;;26.45;11.38;;;;;;;;;;5031452;28;19916;-64
2023/10/02 00:08:39;;;;;;;22.88;11.10;;;;;;;;;;5031338;28;20033;-64
2023/10/02 00:11:37;;;;;;;27.52;12.35;;;;;;;;;;5013272;28;20056;-64
2023/10/02 00:14:18;;;;;;;23.10;11.77;;;;;;;;;;5031101;28;20042;-64
2023/10/02 00:17:03;;;;;;;21.45;11.80;;;;;;;;;;5035776;28;20029;-64
2023/10/02 00:19:30;;;;;;;25.30;11.50;;;;;;;;;;5050719;28;20060;-63
2023/10/02 00:22:04;;;;;;;26.08;11.93;;;;;;;;;;5032999;28;20078;-63
2023/10/02 00:24:32;;;;;;;25.63;11.55;;;;;;;;;;5050490;28;20045;-63
2023/10/02 00:26:58;;;;;;;22.33;12.30;;;;;;;;;;5033464;28;20041;-63
2023/10/02 00:29:28;;;;;;;23.40;12.55;;;;;;;;;;5030780;28;20049;-63
2023/10/02 00:31:54;;;;;;;22.98;11.45;;;;;;;;;;5030649;28;20049;-63
2023/10/02 00:34:32;;;;;;;27.08;12.60;;;;;;;;;;5030652;28;20045;-63
2023/10/02 00:37:05;;;;;;;27.00;11.80;;;;;;;;;;5030845;28;20041;-63
2023/10/02 00:39:35;;;;;;;24.75;11.82;;;;;;;;;;5030490;28;20048;-63
2023/10/02 00:42:17;;;;;;;24.70;11.95;;;;;;;;;;5030339;28;20044;-63
2023/10/02 00:44:57;;;;;;;27.45;12.20;;;;;;;;;;5030564;28;20084;-63
2023/10/02 00:50:16;;;;;;;24.58;11.23;;;;;;;;;;5030132;28;20057;-63
2023/10/02 00:52:43;;;;;;;24.52;11.43;;;;;;;;;;5030540;28;20202;-63
2023/10/02 00:55:11;;;;;;;21.23;10.40;;;;;;;;;;5029979;28;20324;-63
2023/10/02 00:57:38;;;;;;;25.30;11.82;;;;;;;;;;5030531;28;20067;-63
2023/10/02 01:00:07;;;;;;;23.95;11.68;;;;;;;;;;5012382;28;20052;-63
2023/10/02 01:02:38;;;;;;;21.92;11.60;;;;;;;;;;5029944;28;20243;-63
2023/10/02 01:05:04;;;;;;;20.67;11.23;;;;;;;;;;5030347;28;20499;-63
2023/10/02 01:07:33;;;;;;;22.58;11.45;;;;;;;;;;5012246;28;20167;-63
2023/10/02 01:10:11;;;;;;;23.90;11.73;;;;;;;;;;5030122;28;20045;-63
2023/10/02 01:12:43;;;;;;;23.60;11.68;;;;;;;;;;5029838;28;20053;-63
2023/10/02 01:15:13;;;;;;;25.02;11.23;;;;;;;;;;5030043;28;20041;-63
2023/10/02 01:17:45;;;;;;;26.85;11.60;;;;;;;;;;5042277;28;20044;-63
2023/10/02 01:20:54;;;;;;;27.73;12.07;;;;;;;;;;5032087;28;20071;-63
2023/10/02 01:23:16;;;;;;;25.15;11.32;;;;;;;;;;5038793;28;20102;-63
2023/10/02 01:25:49;;;;;;;24.75;12.02;;;;;;;;;;5042411;28;20042;-63
2023/10/02 01:28:15;;;;;;;24.10;12.05;;;;;;;;;;5030034;28;20048;-63
2023/10/02 01:30:44;;;;;;;24.60;12.07;;;;;;;;;;5029698;28;20076;-63
2023/10/02 01:33:26;;;;;;;26.40;13.38;;;;;;;;;;5029937;28;20049;-63
2023/10/02 01:35:53;;;;;;;24.95;13.00;;;;;;;;;;5029765;28;20048;-63
2023/10/02 01:38:29;;;;;;;27.25;13.10;;;;;;;;;;5029484;28;20511;-63
2023/10/02 01:41:03;;;;;;;29.15;13.13;;;;;;;;;;5029690;28;20037;-63
2023/10/02 01:43:32;;;;;;;26.70;13.13;;;;;;;;;;5029799;28;20052;-63
2023/10/02 01:46:00;;;;;;;30.67;14.00;;;;;;;;;;5029292;28;20408;-63
2023/10/02 01:48:44;;;;;;;27.25;13.20;;;;;;;;;;5012600;28;20037;-63
2023/10/02 01:51:20;;;;;;;25.52;12.70;;;;;;;;;;5011604;28;20053;-63
2023/10/02 01:53:51;;;;;;;28.13;12.45;;;;;;;;;;5029373;28;20484;-63
2023/10/02 01:56:21;;;;;;;26.60;14.32;;;;;;;;;;5029206;28;20049;-63
2023/10/02 01:58:48;;;;;;;27.40;13.63;;;;;;;;;;5029630;28;20042;-63
2023/10/02 02:01:14;;;;;;;28.67;13.75;;;;;;;;;;5029273;28;20485;-63
2023/10/02 02:03:41;;;;;;;27.60;14.02;;;;;;;;;;5029524;28;20057;-63
2023/10/02 02:06:08;;;;;;;29.15;14.00;;;;;;;;;;5029548;28;20037;-63
2023/10/02 02:08:44;;;;;;;28.75;13.38;;;;;;;;;;5029384;28;20037;-63
2023/10/02 02:11:16;;;;;;;29.05;14.70;;;;;;;;;;5029419;28;20087;-63
2023/10/02 02:13:47;;;;;;;31.67;13.25;;;;;;;;;;5029513;28;20048;-63
2023/10/02 02:16:16;;;;;;;27.80;12.60;;;;;;;;;;5029468;28;20091;-63
2023/10/02 02:18:42;;;;;;;27.98;13.82;;;;;;;;;;5049404;28;20124;-63
2023/10/02 02:21:13;;;;;;;27.40;13.57;;;;;;;;;;5049152;28;20041;-63
2023/10/02 02:23:39;;;;;;;28.95;13.90;;;;;;;;;;5050143;28;20131;-63
2023/10/02 02:26:08;;;;;;;26.85;13.07;;;;;;;;;;5042768;28;20121;-63
2023/10/02 02:28:43;;;;;;;31.55;14.23;;;;;;;;;;5033310;28;20136;-63
2023/10/02 02:31:29;;;;;;;29.02;13.80;;;;;;;;;;5015056;28;20111;-63
2023/10/02 02:33:55;;;;;;;26.35;13.07;;;;;;;;;;5033170;28;20049;-63
2023/10/02 02:36:22;;;;;;;28.25;13.18;;;;;;;;;;5032921;28;20409;-63
2023/10/02 02:38:48;;;;;;;25.90;13.07;;;;;;;;;;5032742;28;20041;-63
2023/10/02 02:41:18;;;;;;;29.85;13.80;;;;;;;;;;5032859;28;20518;-63
2023/10/02 02:43:46;;;;;;;26.38;13.10;;;;;;;;;;5033145;28;20395;-63
2023/10/02 02:46:17;;;;;;;24.30;13.35;;;;;;;;;;5032157;28;20120;-63
2023/10/02 02:48:46;;;;;;;28.25;13.77;;;;;;;;;;5032879;28;20124;-63
2023/10/02 02:51:15;;;;;;;26.40;12.75;;;;;;;;;;5032507;28;20200;-63
2023/10/02 02:53:41;;;;;;;29.05;13.35;;;;;;;;;;5032401;28;20038;-63
2023/10/02 02:56:23;;;;;;;25.17;13.00;;;;;;;;;;5032488;28;20112;-63
2023/10/02 02:58:50;;;;;;;25.92;12.52;;;;;;;;;;5032755;28;20045;-63
2023/10/02 03:01:22;;;;;;;29.95;14.00;;;;;;;;;;5032351;28;20116;-63
2023/10/02 03:03:50;;;;;;;29.33;14.38;;;;;;;;;;5032735;28;20045;-63
2023/10/02 03:06:18;;;;;;;25.50;13.18;;;;;;;;;;5032491;28;20045;-63
2023/10/02 03:08:45;;;;;;;26.85;12.63;;;;;;;;;;5014479;28;20041;-63
2023/10/02 03:11:11;;;;;;;32.50;13.27;;;;;;;;;;5032507;28;20375;-63
2023/10/02 03:13:40;;;;;;;27.52;13.23;;;;;;;;;;5032561;28;20037;-63
2023/10/02 03:16:16;;;;;;;26.38;13.18;;;;;;;;;;5031767;28;20120;-63
2023/10/02 03:18:45;;;;;;;27.88;13.15;;;;;;;;;;5032375;28;20446;-63
2023/10/02 03:21:24;;;;;;;28.67;13.85;;;;;;;;;;5032016;28;20101;-63
2023/10/02 03:23:54;;;;;;;27.35;14.35;;;;;;;;;;5032019;28;20048;-63
2023/10/02 03:29:01;;;;;;;28.38;13.98;;;;;;;;;;5032196;28;20045;-63
2023/10/02 03:31:37;;;;;;;27.23;14.23;;;;;;;;;;5032028;28;20041;-63
2023/10/02 03:34:27;;;;;;;27.60;13.48;;;;;;;;;;5032150;28;20038;-63
2023/10/02 03:36:58;;;;;;;27.20;13.45;;;;;;;;;;5031061;28;20089;-63
2023/10/02 03:42:13;;;;;;;25.45;12.95;;;;;;;;;;5031776;28;20045;-63
2023/10/02 03:44:45;;;;;;;27.80;13.48;;;;;;;;;;5031476;28;20083;-63
2023/10/02 03:47:14;;;;;;;35.03;13.15;;;;;;;;;;5032073;28;20061;-63
2023/10/02 03:49:42;;;;;;;28.23;13.15;;;;;;;;;;5031886;28;20075;-63
2023/10/02 03:52:08;;;;;;;28.00;13.85;;;;;;;;;;5030942;28;20057;-63
2023/10/02 03:54:35;;;;;;;23.67;12.55;;;;;;;;;;5031568;28;20404;-63
2023/10/02 03:57:02;;;;;;;28.02;12.77;;;;;;;;;;5031501;28;20090;-63
2023/10/02 03:59:31;;;;;;;28.98;13.88;;;;;;;;;;5031461;28;20053;-63
2023/10/02 04:02:24;;;;;;;28.77;13.68;;;;;;;;;;5031525;28;20057;-63
2023/10/02 04:04:44;;;;;;;26.55;12.68;;;;;;;;;;5031008;28;20077;-63
2023/10/02 04:07:11;;;;;;;26.23;12.70;;;;;;;;;;5030869;28;20049;-63
2023/10/02 04:09:37;;;;;;;26.17;13.68;;;;;;;;;;5031496;28;20041;-63
2023/10/02 04:12:07;;;;;;;29.95;14.48;;;;;;;;;;5031352;28;20385;-63
2023/10/02 04:14:33;;;;;;;26.73;14.13;;;;;;;;;;5012946;28;20537;-63
2023/10/02 04:17:21;;;;;;;28.92;13.75;;;;;;;;;;5038237;28;20049;-63
2023/10/02 04:19:51;;;;;;;28.30;14.95;;;;;;;;;;5051073;28;20068;-63
2023/10/02 04:22:26;;;;;;;29.83;15.23;;;;;;;;;;5050373;28;20056;-63
2023/10/02 04:25:03;;;;;;;27.55;13.82;;;;;;;;;;5050645;28;20037;-63
2023/10/02 04:32:35;;;;;;;27.20;13.30;;;;;;;;;;5012974;28;20107;-63
2023/10/02 04:35:03;;;;;;;31.23;13.55;;;;;;;;;;5030848;28;20073;-63
2023/10/02 04:37:32;;;;;;;31.05;16.08;;;;;;;;;;5030584;28;20049;-63
2023/10/02 04:45:20;;;;;;;28.25;14.35;;;;;;;;;;4979219;28;20044;-63
2023/10/02 04:47:48;;;;;;;32.70;14.02;;;;;;;;;;5029667;28;20048;-63
2023/10/02 04:53:26;;;;;;;30.13;14.57;;;;;;;;;;5030636;28;20286;-63
2023/10/02 04:55:31;;;;;;;32.40;14.85;;;;;;;;;;5012956;28;20059;-63
2023/10/02 04:58:08;;;;;;;27.80;14.20;;;;;;;;;;5012280;28;20045;-63
2023/10/02 05:00:35;;;;;;;32.40;15.20;;;;;;;;;;5030691;28;20128;-63
2023/10/02 05:05:53;;;;;;;30.83;13.38;;;;;;;;;;5029809;28;20045;-63
2023/10/02 05:08:21;;;;;;;34.35;14.32;;;;;;;;;;5030033;28;20044;-63
2023/10/02 05:10:56;;;;;;;28.92;14.32;;;;;;;;;;5030059;28;20067;-63
2023/10/02 05:16:09;;;;;;;29.27;14.50;;;;;;;;;;5029947;28;20129;-63
2023/10/02 05:18:35;;;;;;;28.30;14.00;;;;;;;;;;5030249;28;20076;-63
2023/10/02 05:21:02;;;;;;;32.83;16.30;;;;;;;;;;5029953;28;20053;-63
2023/10/02 05:23:29;;;;;;;32.47;14.82;;;;;;;;;;5012086;28;20053;-63
2023/10/02 05:25:55;;;;;;;27.95;14.25;;;;;;;;;;5012133;28;20045;-63
2023/10/02 05:28:21;;;;;;;28.15;13.80;;;;;;;;;;5029810;28;20067;-63
2023/10/02 05:30:48;;;;;;;28.80;14.60;;;;;;;;;;5030147;28;20103;-63
2023/10/02 05:33:16;;;;;;;26.23;13.95;;;;;;;;;;5029947;28;20536;-63
2023/10/02 05:35:45;;;;;;;30.33;14.77;;;;;;;;;;5029454;28;20041;-63
2023/10/02 05:38:16;;;;;;;29.30;13.70;;;;;;;;;;5030137;28;20072;-63
2023/10/02 05:40:47;;;;;;;31.23;14.10;;;;;;;;;;5030180;28;20099;-63
2023/10/02 05:43:21;;;;;;;27.48;13.68;;;;;;;;;;5029372;28;20454;-63
2023/10/02 05:45:47;;;;;;;29.33;13.85;;;;;;;;;;5011705;28;20081;-63
2023/10/02 05:50:59;;;;;;;31.52;14.85;;;;;;;;;;5029040;28;20076;-63
2023/10/02 05:53:26;;;;;;;38.63;14.68;;;;;;;;;;5029771;28;20045;-63
2023/10/02 05:56:05;;;;;;;27.10;13.68;;;;;;;;;;5029587;28;20381;-63
2023/10/02 05:58:39;;;;;;;25.67;13.95;;;;;;;;;;5030214;28;20053;-63
2023/10/02 06:01:06;;;;;;;33.20;15.02;;;;;;;;;;5033870;28;20076;-63
2023/10/02 06:03:36;;;;;;;26.88;14.00;;;;;;;;;;5015747;28;20052;-63
2023/10/02 06:06:21;;;;;;;29.75;14.93;;;;;;;;;;5033518;28;20476;-63
2023/10/02 06:08:51;;;;;;;30.05;14.48;;;;;;;;;;5033737;28;20099;-63
2023/10/02 06:11:26;;;;;;;32.13;14.50;;;;;;;;;;5033689;28;20042;-63
2023/10/02 06:13:56;;;;;;;28.30;13.98;;;;;;;;;;5033085;28;20033;-63
2023/10/02 06:16:25;;;;;;;30.02;13.93;;;;;;;;;;5035127;28;20121;-63
2023/10/02 06:19:00;;;;;;;29.23;14.35;;;;;;;;;;5053458;28;20506;-63
2023/10/02 06:21:27;;;;;;;33.45;14.90;;;;;;;;;;5052742;28;20119;-63
2023/10/02 06:23:53;;;;;;;30.75;14.82;;;;;;;;;;5053010;28;20037;-63
2023/10/02 06:26:19;;;;;;;37.35;15.45;;;;;;;;;;5040906;28;20042;-63
2023/10/02 06:28:48;;;;;;;32.65;15.10;;;;;;;;;;5032998;28;20037;-63
2023/10/02 06:31:30;;;;;;;31.80;14.60;;;;;;;;;;5033337;28;20639;-63
2023/10/02 06:33:57;;;;;;;28.90;14.90;;;;;;;;;;5033184;28;20037;-63
2023/10/02 06:36:23;;;;;;;26.95;14.27;;;;;;;;;;5032621;28;20377;-63
2023/10/02 06:38:54;;;;;;;27.88;14.38;;;;;;;;;;5033029;28;20072;-64
2023/10/02 06:41:23;;;;;;;29.70;14.15;;;;;;;;;;5055951;28;20040;-63
2023/10/02 06:43:49;;;;;;;29.85;14.75;;;;;;;;;;5073212;28;20059;-64
2023/10/02 06:46:19;;;;;;;30.02;15.00;;;;;;;;;;5046766;28;20083;-64
2023/10/02 06:48:46;;;;;;;35.38;14.68;;;;;;;;;;5073006;28;20501;-64
2023/10/02 06:51:16;;;;;;;27.50;14.02;;;;;;;;;;5071207;28;20127;-64
2023/10/02 06:53:43;;;;;;;29.08;14.48;;;;;;;;;;5039222;28;20053;-64
2023/10/02 06:56:12;;;;;;;29.98;14.90;;;;;;;;;;5052941;28;20412;-64
2023/10/02 06:58:52;;;;;;;30.05;14.30;;;;;;;;;;5067219;28;20554;-65
2023/10/02 07:01:18;;;;;;;27.45;13.98;;;;;;;;;;5072363;28;20055;-65
2023/10/02 07:03:56;;;;;;;28.70;14.27;;;;;;;;;;5072590;28;20091;-64
2023/10/02 07:06:25;;;;;;;26.27;14.65;;;;;;;;;;5072384;28;20139;-64
2023/10/02 07:09:10;;;;;;;30.65;14.52;;;;;;;;;;5073194;28;20439;-64
2023/10/02 07:11:39;;;;;;;30.35;14.15;;;;;;;;;;5071585;28;20036;-64
2023/10/02 07:14:06;;;;;;;32.03;15.90;;;;;;;;;;5072192;28;20125;-64
2023/10/02 07:16:32;;;;;;;32.60;15.18;;;;;;;;;;5051396;28;20120;-64
2023/10/02 07:18:59;;;;;;;31.75;15.48;;;;;;;;;;5068478;28;20471;-63
2023/10/02 07:21:30;;;;;;;30.08;14.55;;;;;;;;;;5072259;28;20587;-63
2023/10/02 07:23:56;;;;;;;26.98;14.30;;;;;;;;;;5072607;28;20486;-63
2023/10/02 07:26:49;;;;;;;31.65;14.90;;;;;;;;;;5070068;28;20040;-63
2023/10/02 07:29:08;;;;;;;33.28;15.25;;;;;;;;;;5072334;28;20419;-64
2023/10/02 07:31:35;;;;;;;32.65;14.95;;;;;;;;;;5072749;28;20028;-63
2023/10/02 07:34:02;;;;;;;29.95;14.57;;;;;;;;;;5054252;28;20460;-64
2023/10/02 07:36:30;;;;;;;29.23;14.18;;;;;;;;;;5072322;28;20044;-63
2023/10/02 07:39:00;;;;;;;32.67;14.77;;;;;;;;;;5072253;28;20083;-64
2023/10/02 07:41:28;;;;;;;29.30;13.85;;;;;;;;;;5070701;28;20461;-64
2023/10/02 07:43:55;;;;;;;30.92;15.35;;;;;;;;;;5052385;28;20127;-63
2023/10/02 07:46:24;;;;;;;29.92;14.93;;;;;;;;;;5051749;28;20476;-63
2023/10/02 07:49:04;;;;;;;33.60;15.55;;;;;;;;;;5051916;28;20055;-63
2023/10/02 07:51:35;;;;;;;32.03;14.85;;;;;;;;;;5051945;28;20061;-63
2023/10/02 07:54:02;;;;;;;29.52;14.95;;;;;;;;;;5058150;28;20057;-63
2023/10/02 07:56:29;;;;;;;30.65;15.80;;;;;;;;;;5068844;28;20115;-63
2023/10/02 07:58:55;;;;;;;34.10;15.73;;;;;;;;;;5051677;28;20086;-65
2023/10/02 08:01:23;;;;;;;31.85;14.93;;;;;;;;;;5053370;28;20045;-63
2023/10/02 08:03:50;;;;;;;31.73;15.25;;;;;;;;;;5071632;28;20059;-63
2023/10/02 08:06:33;;;;;;;28.38;15.43;;;;;;;;;;5053402;28;20086;-63
2023/10/02 08:11:51;;;;;;;30.70;14.88;;;;;;;;;;5071273;28;20405;-63
2023/10/02 08:14:42;;;;;;;33.45;15.18;;;;;;;;;;5071300;28;20040;-64
2023/10/02 08:17:21;;;;;;;34.58;15.27;;;;;;;;;;5063153;28;20389;-64
2023/10/02 08:19:54;;;;;;;29.63;15.43;;;;;;;;;;5070533;28;20052;-63
2023/10/02 08:22:24;;;;;;;33.25;14.88;;;;;;;;;;5070834;28;20475;-63
2023/10/02 08:24:55;;;;;;;28.45;15.38;;;;;;;;;;5071371;28;20387;-63
2023/10/02 08:27:22;;;;;;;32.97;15.48;;;;;;;;;;5052462;28;20103;-63
2023/10/02 08:29:48;;;;;;;33.28;16.17;;;;;;;;;;5048637;28;20066;-62
2023/10/02 08:32:28;;;;;;;36.58;16.48;;;;;;;;;;5059216;28;20044;-62
2023/10/02 08:34:54;;;;;;;38.75;17.45;;;;;;;;;;5064606;28;20048;-63
2023/10/02 08:37:20;;;;;;;30.98;15.50;;;;;;;;;;5071219;28;20141;-63
2023/10/02 08:39:46;;;;;;;34.58;16.02;;;;;;;;;;5070878;28;20047;-63
2023/10/02 08:42:14;;;;;;;42.88;18.60;;;;;;;;;;5070488;28;20127;-62
2023/10/02 08:44:41;;;;;;;34.25;15.48;;;;;;;;;;5071192;28;20101;-62
2023/10/02 08:47:07;;;;;;;39.28;16.30;;;;;;;;;;5056492;28;20044;-63
2023/10/02 08:49:36;;;;;;;34.17;16.00;;;;;;;;;;5052060;28;20704;-64
2023/10/02 08:52:05;;;;;;;37.22;16.75;;;;;;;;;;5070752;28;20075;-63
2023/10/02 08:54:31;;;;;;;33.78;16.48;;;;;;;;;;5070432;28;20051;-63
2023/10/02 08:57:08;;;;;;;33.38;15.82;;;;;;;;;;5070720;28;20433;-63
2023/10/02 08:59:41;;;;;;;35.80;17.30;;;;;;;;;;5070224;28;20420;-63
2023/10/02 09:02:16;;;;;;;36.53;16.52;;;;;;;;;;5070001;28;20048;-63
2023/10/02 09:05:06;;;;;;;36.67;16.38;;;;;;;;;;5070627;28;20086;-66
2023/10/02 09:10:24;;;;;;;38.53;16.92;;;;;;;;;;5031904;28;20571;-62
2023/10/02 09:13:09;;;;;;;35.53;17.00;;;;;;;;;;5050751;28;20673;-62
2023/10/02 09:15:35;;;;;;;36.08;17.40;;;;;;;;;;5068104;28;20028;-62
2023/10/02 09:18:19;;;;;;;41.90;18.73;;;;;;;;;;5058781;28;20093;-63
2023/10/02 09:21:13;;;;;;;36.78;19.67;;;;;;;;;;5070796;28;20044;-63
2023/10/02 09:23:49;;;;;;;45.97;22.58;;;;;;;;;;5070251;28;20044;-64
2023/10/02 09:26:23;;;;;;;46.47;23.27;;;;;;;;;;5064373;28;20667;-64
2023/10/02 09:28:59;;;;;;;51.90;21.92;;;;;;;;;;5070238;28;20071;-63
2023/10/02 09:31:30;;;;;;;40.28;20.60;;;;;;;;;;5052181;28;20049;-63
2023/10/02 09:33:56;;;;;;;47.90;21.70;;;;;;;;;;5069290;28;20059;-63
2023/10/02 09:36:36;;;;;;;47.80;22.42;;;;;;;;;;5070177;28;20052;-63
2023/10/02 09:39:31;;;;;;;48.58;21.38;;;;;;;;;;5069432;28;20053;-62
2023/10/02 09:41:53;;;;;;;47.42;21.65;;;;;;;;;;5069420;28;20075;-63
2023/10/02 09:44:22;;;;;;;49.45;20.15;;;;;;;;;;5070482;28;20036;-63
2023/10/02 09:46:51;;;;;;;46.65;21.75;;;;;;;;;;5069321;28;20048;-63
2023/10/02 09:49:21;;;;;;;48.75;21.02;;;;;;;;;;5070096;28;20040;-63
2023/10/02 09:52:23;;;;;;;46.63;21.80;;;;;;;;;;5069546;28;20110;-63
2023/10/02 09:55:03;;;;;;;43.78;21.58;;;;;;;;;;5069612;28;20130;-62
2023/10/02 09:57:33;;;;;;;48.85;21.88;;;;;;;;;;5070354;28;20540;-63
2023/10/02 10:00:00;;;;;;;51.20;21.25;;;;;;;;;;5069753;28;20037;-63
2023/10/02 10:13:32;;;;;;;48.50;21.48;;;;;;;;;;5070023;28;20055;-63
2023/10/02 10:16:18;;;;;;;50.53;21.85;;;;;;;;;;5069133;28;20080;-63
2023/10/02 10:21:56;;;;;;;48.58;22.85;;;;;;;;;;5069749;28;20487;-63
2023/10/02 10:27:25;;;;;;;;;;;;;;;;;;5058797;28;20052;-64
2023/10/02 10:30:09;;;;;;;51.38;22.90;;;;;;;;;;5069317;28;19935;-64
2023/10/02 10:32:36;;;;;;;55.63;24.33;;;;;;;;;;5069253;28;20045;-64
2023/10/02 10:35:12;;;;;;;52.17;24.30;;;;;;;;;;5069337;28;20041;-64
2023/10/02 10:37:48;;;;;;;53.53;24.58;;;;;;;;;;5070296;28;20076;-64
2023/10/02 10:40:44;;;;;;;56.40;24.25;;;;;;;;;;5049033;28;20182;-64
2023/10/02 10:43:12;;;;;;;59.53;25.38;;;;;;;;;;5061215;28;20049;-64
2023/10/02 10:45:40;;;;;;;58.78;26.35;;;;;;;;;;5054411;28;20046;-64
2023/10/02 10:48:26;;;;;;;51.80;25.35;;;;;;;;;;5072974;28;20036;-64
2023/10/02 10:50:59;;;;;;;53.30;24.27;;;;;;;;;;5072982;28;20557;-64
2023/10/02 10:53:28;;;;;;;53.85;23.67;;;;;;;;;;5073403;28;20075;-64
2023/10/02 10:55:59;;;;;;;47.33;21.23;;;;;;;;;;5055138;28;20052;-64
2023/10/02 10:58:38;;;;;;;48.75;22.15;;;;;;;;;;5055092;28;20075;-64
2023/10/02 11:01:05;;;;;;;51.70;23.00;;;;;;;;;;5072923;28;20059;-64
2023/10/02 11:03:31;;;;;;;49.72;23.00;;;;;;;;;;5073089;28;20036;-64
2023/10/02 11:06:04;;;;;;;45.70;20.00;;;;;;;;;;5055004;28;20101;-63
2023/10/02 11:08:33;;;;;;;48.45;21.90;;;;;;;;;;5073005;28;20487;-62
2023/10/02 11:11:04;;;;;;;42.38;21.50;;;;;;;;;;5072474;28;20121;-62
2023/10/02 11:13:57;;;;;;;45.92;20.70;;;;;;;;;;5072643;28;20067;-63
2023/10/02 11:16:36;;;;;;;44.35;20.23;;;;;;;;;;5069409;28;20055;-62
2023/10/02 11:19:34;;;;;;;50.10;21.98;;;;;;;;;;5062621;28;20051;-63
2023/10/02 11:22:17;;;;;;;47.30;23.08;;;;;;;;;;5072172;28;20535;-63
2023/10/02 11:24:55;;;;;;;49.97;23.73;;;;;;;;;;5072048;28;20053;-62
2023/10/02 11:27:21;;;;;;;45.30;22.35;;;;;;;;;;5056181;28;20036;-63
2023/10/02 11:30:01;;;;;;;49.88;22.83;;;;;;;;;;5072676;28;20032;-63
2023/10/02 11:32:53;;;;;;;47.30;22.77;;;;;;;;;;5072477;28;20087;-63
2023/10/02 11:35:20;;;;;;;46.65;22.52;;;;;;;;;;5068585;28;20098;-62
2023/10/02 11:37:47;;;;;;;44.55;23.10;;;;;;;;;;5072146;28;20040;-64
2023/10/02 11:40:13;;;;;;;45.35;22.65;;;;;;;;;;5070469;28;20045;-63
2023/10/02 11:42:40;;;;;;;47.05;22.45;;;;;;;;;;5071891;28;20051;-62
2023/10/02 11:45:07;;;;;;;48.10;23.38;;;;;;;;;;5071883;28;20040;-63
2023/10/02 11:47:33;;;;;;;42.72;24.08;;;;;;;;;;5071936;28;20554;-63
2023/10/02 11:50:00;;;;;;;44.40;23.15;;;;;;;;;;5071976;28;20119;-63
2023/10/02 11:52:26;;;;;;;42.70;21.98;;;;;;;;;;5071048;28;20064;-63
2023/10/02 11:54:54;;;;;;;47.60;22.73;;;;;;;;;;5071606;28;20119;-63
2023/10/02 11:57:20;;;;;;;41.08;21.55;;;;;;;;;;5071557;28;20123;-63
2023/10/02 11:59:50;;;;;;;38.88;21.45;;;;;;;;;;5071312;28;20124;-63
2023/10/02 12:02:16;;;;;;;37.17;19.13;;;;;;;;;;5070693;28;20048;-63
2023/10/02 12:04:43;;;;;;;39.35;22.00;;;;;;;;;;5071891;28;20367;-63
2023/10/02 12:07:16;;;;;;;45.03;20.30;;;;;;;;;;5071290;28;20041;-63
2023/10/02 12:09:47;;;;;;;43.40;20.40;;;;;;;;;;5071968;28;20462;-63
2023/10/02 12:12:13;;;;;;;41.67;20.15;;;;;;;;;;5071245;28;20105;-63
2023/10/02 12:14:39;;;;;;;36.83;18.63;;;;;;;;;;5071118;28;20120;-63
2023/10/02 12:17:06;;;;;;;33.83;17.67;;;;;;;;;;5063873;28;20045;-63
2023/10/02 12:19:36;;;;;;;34.47;16.73;;;;;;;;;;5063449;28;20445;-63
2023/10/02 12:22:07;;;;;;;36.88;17.98;;;;;;;;;;5071326;28;20044;-63
2023/10/02 12:24:35;;;;;;;33.17;17.33;;;;;;;;;;5071027;28;20128;-63
2023/10/02 12:27:01;;;;;;;32.15;16.15;;;;;;;;;;5060751;28;20136;-63
2023/10/02 12:29:29;;;;;;;31.98;15.70;;;;;;;;;;5071140;28;20036;-62
2023/10/02 12:31:59;;;;;;;35.17;15.73;;;;;;;;;;5070583;28;20102;-64
2023/10/02 12:34:25;;;;;;;31.45;14.45;;;;;;;;;;5070953;28;20040;-62
2023/10/02 12:36:53;;;;;;;33.70;14.27;;;;;;;;;;5070849;28;20032;-62
2023/10/02 12:39:20;;;;;;;25.80;12.27;;;;;;;;;;5071459;28;20043;-62
2023/10/02 12:41:46;;;;;;;28.85;12.50;;;;;;;;;;5070933;28;20029;-62
2023/10/02 12:44:13;;;;;;;28.80;12.60;;;;;;;;;;5070808;28;20493;-63
2023/10/02 12:46:50;;;;;;;31.10;14.00;;;;;;;;;;5071028;28;20564;-63
2023/10/02 12:49:17;;;;;;;29.30;12.52;;;;;;;;;;5071435;28;20047;-63
2023/10/02 12:51:44;;;;;;;30.40;13.25;;;;;;;;;;5069960;28;20487;-64
2023/10/02 12:54:11;;;;;;;26.58;12.40;;;;;;;;;;5071071;28;20044;-63
2023/10/02 12:56:39;;;;;;;26.35;11.32;;;;;;;;;;5070521;28;20531;-62
2023/10/02 12:59:07;;;;;;;26.65;13.13;;;;;;;;;;5070416;28;20040;-62
2023/10/02 13:01:34;;;;;;;26.08;11.63;;;;;;;;;;5070886;28;20076;-63
2023/10/02 13:04:00;;;;;;;26.25;11.60;;;;;;;;;;5070201;28;20097;-64
2023/10/02 13:06:27;;;;;;;21.85;10.68;;;;;;;;;;5069759;28;20093;-62
2023/10/02 13:11:39;;;;;;;21.15;8.93;;;;;;;;;;5070252;28;20040;-64
2023/10/02 13:14:06;;;;;;;19.30;8.88;;;;;;;;;;5070090;28;20071;-64
2023/10/02 13:16:32;;;;;;;18.73;9.50;;;;;;;;;;5066821;28;20079;-63
2023/10/02 13:18:58;;;;;;;17.88;8.88;;;;;;;;;;5055897;28;20429;-65
2023/10/02 13:21:24;;;;;;;20.90;9.82;;;;;;;;;;5069479;28;20128;-63
2023/10/02 13:23:51;;;;;;;21.77;9.02;;;;;;;;;;5069860;28;20127;-64
2023/10/02 13:26:17;;;;;;;22.17;11.00;;;;;;;;;;5058642;28;20041;-63
2023/10/02 13:28:54;;;;;;;21.65;10.63;;;;;;;;;;5069795;28;20037;-63
2023/10/02 13:31:20;;;;;;;22.77;9.63;;;;;;;;;;5070208;28;20056;-63
2023/10/02 13:33:53;;;;;;;21.55;9.98;;;;;;;;;;5052284;28;20509;-64
2023/10/02 13:36:22;;;;;;;23.98;9.88;;;;;;;;;;5069641;28;20101;-62
2023/10/02 13:38:53;;;;;;;25.45;10.90;;;;;;;;;;5064942;28;20052;-63
2023/10/02 13:41:19;;;;;;;22.60;10.43;;;;;;;;;;5053994;28;20045;-63
2023/10/02 13:43:48;;;;;;;23.08;11.65;;;;;;;;;;5060824;28;20041;-63
2023/10/02 13:46:14;;;;;;;22.58;11.10;;;;;;;;;;5070124;28;20471;-62
2023/10/02 13:48:44;;;;;;;24.13;11.18;;;;;;;;;;5063068;28;20045;-63
2023/10/02 13:51:13;;;;;;;19.73;10.80;;;;;;;;;;5042190;28;20519;-63
2023/10/02 13:53:40;;;;;;;22.42;11.68;;;;;;;;;;5069740;28;20044;-63
2023/10/02 13:56:16;;;;;;;22.50;11.45;;;;;;;;;;5069645;28;20051;-63
2023/10/02 13:58:44;;;;;;;19.77;9.90;;;;;;;;;;5063921;28;20371;-63
2023/10/02 14:01:14;;;;;;;21.60;11.05;;;;;;;;;;5061539;28;20167;-64
2023/10/02 14:03:45;;;;;;;19.67;8.73;;;;;;;;;;5059576;28;20053;-64
2023/10/02 14:06:12;;;;;;;21.10;9.50;;;;;;;;;;5051731;28;20052;-63
2023/10/02 14:08:42;;;;;;;17.48;8.88;;;;;;;;;;5051859;28;20048;-64
2023/10/02 14:11:09;;;;;;;18.23;8.80;;;;;;;;;;5069971;28;20391;-63
2023/10/02 14:13:36;;;;;;;22.67;10.18;;;;;;;;;;5069838;28;20536;-63
2023/10/02 14:16:12;;;;;;;21.27;10.60;;;;;;;;;;5069849;28;20040;-63
2023/10/02 14:18:38;;;;;;;22.83;10.63;;;;;;;;;;5032037;28;20064;-63
2023/10/02 14:21:05;;;;;;;21.58;10.35;;;;;;;;;;5073585;28;20052;-62
2023/10/02 14:23:32;;;;;;;20.73;11.18;;;;;;;;;;5073381;28;20036;-62
2023/10/02 14:25:59;;;;;;;22.80;10.50;;;;;;;;;;5040700;28;20033;-64
2023/10/02 14:28:25;;;;;;;23.38;11.82;;;;;;;;;;5065138;28;20040;-64
2023/10/02 14:30:52;;;;;;;21.92;10.80;;;;;;;;;;5073869;28;20125;-63
2023/10/02 14:33:18;;;;;;;19.23;9.90;;;;;;;;;;5074449;28;20041;-63
2023/10/02 14:35:45;;;;;;;20.33;9.77;;;;;;;;;;5073571;28;20090;-63
2023/10/02 14:38:11;;;;;;;20.83;9.82;;;;;;;;;;5074443;28;20040;-62
2023/10/02 14:40:38;;;;;;;22.02;9.45;;;;;;;;;;5073979;28;20490;-62
2023/10/02 14:43:04;;;;;;;22.30;10.93;;;;;;;;;;5073675;28;20083;-62
2023/10/02 14:45:30;;;;;;;17.52;9.25;;;;;;;;;;5074018;28;20050;-62
2023/10/02 14:47:57;;;;;;;24.30;12.10;;;;;;;;;;5073877;28;20037;-61
2023/10/02 14:50:31;;;;;;;23.90;11.98;;;;;;;;;;5073292;28;20061;-62
2023/10/02 14:52:57;;;;;;;27.45;12.18;;;;;;;;;;5073651;28;20514;-63
2023/10/02 14:55:25;;;;;;;21.95;10.35;;;;;;;;;;5073253;28;20124;-63
2023/10/02 14:57:51;;;;;;;23.33;10.52;;;;;;;;;;5073682;28;20048;-62
2023/10/02 15:00:21;;;;;;;22.60;10.50;;;;;;;;;;5056075;28;20050;-62
2023/10/02 15:02:51;;;;;;;24.67;11.55;;;;;;;;;;5073770;28;20044;-62
2023/10/02 15:05:18;;;;;;;26.65;11.52;;;;;;;;;;5073602;28;20068;-62
2023/10/02 15:07:47;;;;;;;25.40;11.68;;;;;;;;;;5074177;28;20075;-62
2023/10/02 15:10:15;;;;;;;27.73;13.23;;;;;;;;;;5074043;28;20663;-62
2023/10/02 15:12:41;;;;;;;28.05;12.32;;;;;;;;;;5073596;28;20544;-62
2023/10/02 15:15:13;;;;;;;23.52;10.57;;;;;;;;;;5073760;28;20106;-62
2023/10/02 15:17:41;;;;;;;22.20;10.02;;;;;;;;;;5060939;28;20040;-62
2023/10/02 15:20:12;;;;;;;21.52;11.15;;;;;;;;;;5053489;28;20044;-62
2023/10/02 15:22:39;;;;;;;20.98;11.30;;;;;;;;;;5053779;28;20053;-62
2023/10/02 15:25:06;;;;;;;20.70;10.23;;;;;;;;;;5051516;28;20068;-62
2023/10/02 15:27:32;;;;;;;23.60;10.70;;;;;;;;;;5033475;28;20080;-62
2023/10/02 15:29:58;;;;;;;22.60;10.82;;;;;;;;;;5033817;28;20037;-62
2023/10/02 15:32:24;;;;;;;20.10;9.73;;;;;;;;;;5032781;28;20052;-62
2023/10/02 15:34:50;;;;;;;20.90;8.95;;;;;;;;;;5033419;28;20069;-62